sensor_id;sensor_type;location;lat;lon;timestamp;temperature;humidity
216;HTU21D;45701;48.81287245;9.14186865;2022-07-30T00:00:48;18.97;70.10
216;HTU21D;45701;48.81287245;9.14186865;2022-07-30T00:03:15;18.93;70.56
216;HTU21D;45701;48.81287245;9.14186865;2022-07-30T00:05:41;18.86;70.93
216;HTU21D;45701;48.81287245;9.14186865;2022-07-30T00:08:08;19.02;70.36
216;HTU21D;45701;48.81287245;9.14186865;2022-07-30T00:10:36;19.31;69.26
216;HTU21D;45701;48.81287245;9.14186865;2022-07-30T00:13:03;19.35;68.62
216;HTU21D;45701;48.81287245;9.14186865;2022-07-30T00:15:30;19.12;68.70
216;HTU21D;45701;48.81287245;9.14186865;2022-07-30T00:17:57;18.78;69.98
216;HTU21D;45701;48.81287245;9.14186865;2022-07-30T00:20:24;18.81;70.04
216;HTU21D;45701;48.81287245;9.14186865;2022-07-30T00:22:50;18.74;71.40
216;HTU21D;45701;48.81287245;9.14186865;2022-07-30T00:25:17;18.59;72.69
216;HTU21D;45701;48.81287245;9.14186865;2022-07-30T00:27:45;18.67;72.73
216;HTU21D;45701;48.81287245;9.14186865;2022-07-30T00:30:12;18.78;72.66
216;HTU21D;45701;48.81287245;9.14186865;2022-07-30T00:32:39;18.99;71.63
216;HTU21D;45701;48.81287245;9.14186865;2022-07-30T00:35:08;19.13;70.88
216;HTU21D;45701;48.81287245;9.14186865;2022-07-30T00:37:35;19.27;70.42
216;HTU21D;45701;48.81287245;9.14186865;2022-07-30T00:40:03;19.50;68.99
216;HTU21D;45701;48.81287245;9.14186865;2022-07-30T00:42:39;19.60;68.55
216;HTU21D;45701;48.81287245;9.14186865;2022-07-30T00:45:09;19.57;68.49
216;HTU21D;45701;48.81287245;9.14186865;2022-07-30T00:47:37;19.57;67.71
216;HTU21D;45701;48.81287245;9.14186865;2022-07-30T00:50:06;19.55;67.89
216;HTU21D;45701;48.81287245;9.14186865;2022-07-30T00:52:34;19.58;67.78
216;HTU21D;45701;48.81287245;9.14186865;2022-07-30T00:55:04;19.69;67.05
216;HTU21D;45701;48.81287245;9.14186865;2022-07-30T00:57:31;19.71;67.23
216;HTU21D;45701;48.81287245;9.14186865;2022-07-30T00:59:57;19.69;67.65
216;HTU21D;45701;48.81287245;9.14186865;2022-07-30T01:02:25;19.70;67.43
216;HTU21D;45701;48.81287245;9.14186865;2022-07-30T01:04:52;19.47;68.44
216;HTU21D;45701;48.81287245;9.14186865;2022-07-30T01:07:18;19.38;68.78
216;HTU21D;45701;48.81287245;9.14186865;2022-07-30T01:09:45;19.37;68.85
216;HTU21D;45701;48.81287245;9.14186865;2022-07-30T01:12:14;19.31;69.20
216;HTU21D;45701;48.81287245;9.14186865;2022-07-30T01:14:42;19.23;69.76
216;HTU21D;45701;48.81287245;9.14186865;2022-07-30T01:17:09;19.25;69.44
216;HTU21D;45701;48.81287245;9.14186865;2022-07-30T01:19:39;19.26;69.43
216;HTU21D;45701;48.81287245;9.14186865;2022-07-30T01:22:23;19.23;69.66
216;HTU21D;45701;48.81287245;9.14186865;2022-07-30T01:24:55;19.16;69.97
216;HTU21D;45701;48.81287245;9.14186865;2022-07-30T01:27:27;19.24;69.72
216;HTU21D;45701;48.81287245;9.14186865;2022-07-30T01:29:56;19.21;69.93
216;HTU21D;45701;48.81287245;9.14186865;2022-07-30T01:32:25;19.25;69.31
216;HTU21D;45701;48.81287245;9.14186865;2022-07-30T01:34:54;19.16;69.92
216;HTU21D;45701;48.81287245;9.14186865;2022-07-30T01:37:22;19.16;69.30
216;HTU21D;45701;48.81287245;9.14186865;2022-07-30T01:39:50;19.41;68.18
216;HTU21D;45701;48.81287245;9.14186865;2022-07-30T01:42:18;19.39;68.48
216;HTU21D;45701;48.81287245;9.14186865;2022-07-30T01:44:47;19.51;67.95
216;HTU21D;45701;48.81287245;9.14186865;2022-07-30T01:47:14;19.51;67.97
216;HTU21D;45701;48.81287245;9.14186865;2022-07-30T01:49:43;19.40;68.06
216;HTU21D;45701;48.81287245;9.14186865;2022-07-30T01:52:12;19.44;67.41
216;HTU21D;45701;48.81287245;9.14186865;2022-07-30T01:54:41;19.42;67.46
216;HTU21D;45701;48.81287245;9.14186865;2022-07-30T01:57:10;19.27;67.72
216;HTU21D;45701;48.81287245;9.14186865;2022-07-30T01:59:40;19.31;67.94
216;HTU21D;45701;48.81287245;9.14186865;2022-07-30T02:02:09;19.30;67.44
216;HTU21D;45701;48.81287245;9.14186865;2022-07-30T02:04:36;19.21;67.78
216;HTU21D;45701;48.81287245;9.14186865;2022-07-30T02:07:09;19.07;68.59
216;HTU21D;45701;48.81287245;9.14186865;2022-07-30T02:09:44;19.09;68.93
216;HTU21D;45701;48.81287245;9.14186865;2022-07-30T02:12:15;19.10;68.55
216;HTU21D;45701;48.81287245;9.14186865;2022-07-30T02:15:17;18.98;69.24
216;HTU21D;45701;48.81287245;9.14186865;2022-07-30T02:17:55;18.99;69.18
216;HTU21D;45701;48.81287245;9.14186865;2022-07-30T02:20:26;19.02;68.73
216;HTU21D;45701;48.81287245;9.14186865;2022-07-30T02:22:57;18.98;68.52
216;HTU21D;45701;48.81287245;9.14186865;2022-07-30T02:25:26;18.83;68.82
216;HTU21D;45701;48.81287245;9.14186865;2022-07-30T02:27:57;18.93;68.37
216;HTU21D;45701;48.81287245;9.14186865;2022-07-30T02:30:29;18.69;68.68
216;HTU21D;45701;48.81287245;9.14186865;2022-07-30T02:33:02;18.55;69.51
216;HTU21D;45701;48.81287245;9.14186865;2022-07-30T02:35:31;18.56;69.26
216;HTU21D;45701;48.81287245;9.14186865;2022-07-30T02:38:00;18.66;68.71
216;HTU21D;45701;48.81287245;9.14186865;2022-07-30T02:40:29;18.70;68.24
216;HTU21D;45701;48.81287245;9.14186865;2022-07-30T02:42:56;18.62;68.84
216;HTU21D;45701;48.81287245;9.14186865;2022-07-30T02:45:25;18.53;68.82
216;HTU21D;45701;48.81287245;9.14186865;2022-07-30T02:47:58;18.43;69.03
216;HTU21D;45701;48.81287245;9.14186865;2022-07-30T02:50:26;18.37;69.52
216;HTU21D;45701;48.81287245;9.14186865;2022-07-30T02:52:55;18.63;68.10
216;HTU21D;45701;48.81287245;9.14186865;2022-07-30T02:55:23;18.50;68.50
216;HTU21D;45701;48.81287245;9.14186865;2022-07-30T02:57:52;18.25;69.42
216;HTU21D;45701;48.81287245;9.14186865;2022-07-30T03:00:19;18.24;69.56
216;HTU21D;45701;48.81287245;9.14186865;2022-07-30T03:02:46;18.42;68.75
216;HTU21D;45701;48.81287245;9.14186865;2022-07-30T03:05:14;18.58;68.22
216;HTU21D;45701;48.81287245;9.14186865;2022-07-30T03:07:42;18.34;68.76
216;HTU21D;45701;48.81287245;9.14186865;2022-07-30T03:10:10;18.44;68.23
216;HTU21D;45701;48.81287245;9.14186865;2022-07-30T03:12:49;18.25;68.97
216;HTU21D;45701;48.81287245;9.14186865;2022-07-30T03:15:17;18.13;69.45
216;HTU21D;45701;48.81287245;9.14186865;2022-07-30T03:17:48;18.09;69.47
216;HTU21D;45701;48.81287245;9.14186865;2022-07-30T03:20:19;18.00;69.94
216;HTU21D;45701;48.81287245;9.14186865;2022-07-30T03:22:50;17.92;70.13
216;HTU21D;45701;48.81287245;9.14186865;2022-07-30T03:25:23;18.11;69.71
216;HTU21D;45701;48.81287245;9.14186865;2022-07-30T03:27:54;18.29;68.32
216;HTU21D;45701;48.81287245;9.14186865;2022-07-30T03:30:24;18.28;68.01
216;HTU21D;45701;48.81287245;9.14186865;2022-07-30T03:32:53;18.28;68.16
216;HTU21D;45701;48.81287245;9.14186865;2022-07-30T03:35:22;18.26;68.18
216;HTU21D;45701;48.81287245;9.14186865;2022-07-30T03:37:50;18.10;68.76
216;HTU21D;45701;48.81287245;9.14186865;2022-07-30T03:40:17;18.18;68.94
216;HTU21D;45701;48.81287245;9.14186865;2022-07-30T03:42:45;18.34;67.94
216;HTU21D;45701;48.81287245;9.14186865;2022-07-30T03:45:15;18.40;67.73
216;HTU21D;45701;48.81287245;9.14186865;2022-07-30T03:47:43;18.35;68.02
216;HTU21D;45701;48.81287245;9.14186865;2022-07-30T03:50:12;18.30;67.84
216;HTU21D;45701;48.81287245;9.14186865;2022-07-30T03:52:41;18.21;68.43
216;HTU21D;45701;48.81287245;9.14186865;2022-07-30T03:55:13;18.33;67.71
216;HTU21D;45701;48.81287245;9.14186865;2022-07-30T03:57:49;18.09;68.75
216;HTU21D;45701;48.81287245;9.14186865;2022-07-30T04:00:19;18.13;68.33
216;HTU21D;45701;48.81287245;9.14186865;2022-07-30T04:02:50;18.08;68.68
216;HTU21D;45701;48.81287245;9.14186865;2022-07-30T04:05:30;18.20;68.02
216;HTU21D;45701;48.81287245;9.14186865;2022-07-30T04:08:01;17.72;69.71
216;HTU21D;45701;48.81287245;9.14186865;2022-07-30T04:10:30;17.98;68.89
216;HTU21D;45701;48.81287245;9.14186865;2022-07-30T04:12:57;17.91;69.14
216;HTU21D;45701;48.81287245;9.14186865;2022-07-30T04:15:25;18.10;68.26
216;HTU21D;45701;48.81287245;9.14186865;2022-07-30T04:17:56;17.95;68.69
216;HTU21D;45701;48.81287245;9.14186865;2022-07-30T04:20:26;17.90;68.89
216;HTU21D;45701;48.81287245;9.14186865;2022-07-30T04:22:55;17.94;68.96
216;HTU21D;45701;48.81287245;9.14186865;2022-07-30T04:25:24;17.87;69.09
216;HTU21D;45701;48.81287245;9.14186865;2022-07-30T04:27:51;17.95;68.84
216;HTU21D;45701;48.81287245;9.14186865;2022-07-30T04:30:18;17.70;69.74
216;HTU21D;45701;48.81287245;9.14186865;2022-07-30T04:32:45;17.75;69.68
216;HTU21D;45701;48.81287245;9.14186865;2022-07-30T04:35:32;17.85;69.23
216;HTU21D;45701;48.81287245;9.14186865;2022-07-30T04:38:09;18.00;68.57
216;HTU21D;45701;48.81287245;9.14186865;2022-07-30T04:40:40;18.10;69.00
216;HTU21D;45701;48.81287245;9.14186865;2022-07-30T04:43:07;17.78;70.02
216;HTU21D;45701;48.81287245;9.14186865;2022-07-30T04:45:37;17.64;70.95
216;HTU21D;45701;48.81287245;9.14186865;2022-07-30T04:48:05;17.78;70.42
216;HTU21D;45701;48.81287245;9.14186865;2022-07-30T04:50:48;17.94;69.87
216;HTU21D;45701;48.81287245;9.14186865;2022-07-30T04:53:18;17.96;69.90
216;HTU21D;45701;48.81287245;9.14186865;2022-07-30T04:55:59;18.02;69.51
216;HTU21D;45701;48.81287245;9.14186865;2022-07-30T04:58:29;18.10;69.29
216;HTU21D;45701;48.81287245;9.14186865;2022-07-30T05:00:57;18.13;69.54
216;HTU21D;45701;48.81287245;9.14186865;2022-07-30T05:03:28;18.07;69.13
216;HTU21D;45701;48.81287245;9.14186865;2022-07-30T05:05:56;18.03;69.84
216;HTU21D;45701;48.81287245;9.14186865;2022-07-30T05:08:28;18.03;70.64
216;HTU21D;45701;48.81287245;9.14186865;2022-07-30T05:10:55;18.35;69.15
216;HTU21D;45701;48.81287245;9.14186865;2022-07-30T05:13:23;18.47;69.04
216;HTU21D;45701;48.81287245;9.14186865;2022-07-30T05:15:51;18.42;69.08
216;HTU21D;45701;48.81287245;9.14186865;2022-07-30T05:18:19;18.58;65.35
216;HTU21D;45701;48.81287245;9.14186865;2022-07-30T05:20:46;18.79;63.34
216;HTU21D;45701;48.81287245;9.14186865;2022-07-30T05:23:27;19.02;61.95
216;HTU21D;45701;48.81287245;9.14186865;2022-07-30T05:26:07;19.09;61.99
216;HTU21D;45701;48.81287245;9.14186865;2022-07-30T05:28:39;19.11;61.68
216;HTU21D;45701;48.81287245;9.14186865;2022-07-30T05:31:10;19.18;62.24
216;HTU21D;45701;48.81287245;9.14186865;2022-07-30T05:33:37;19.32;61.85
216;HTU21D;45701;48.81287245;9.14186865;2022-07-30T05:36:05;19.36;61.15
216;HTU21D;45701;48.81287245;9.14186865;2022-07-30T05:38:36;19.35;60.84
216;HTU21D;45701;48.81287245;9.14186865;2022-07-30T05:41:21;19.38;60.53
216;HTU21D;45701;48.81287245;9.14186865;2022-07-30T05:44:02;19.52;60.65
216;HTU21D;45701;48.81287245;9.14186865;2022-07-30T05:46:29;19.70;59.52
216;HTU21D;45701;48.81287245;9.14186865;2022-07-30T05:48:56;19.75;59.95
216;HTU21D;45701;48.81287245;9.14186865;2022-07-30T05:51:23;19.70;58.96
216;HTU21D;45701;48.81287245;9.14186865;2022-07-30T05:53:50;19.81;58.94
216;HTU21D;45701;48.81287245;9.14186865;2022-07-30T05:56:35;19.90;58.74
216;HTU21D;45701;48.81287245;9.14186865;2022-07-30T05:59:19;20.14;57.42
216;HTU21D;45701;48.81287245;9.14186865;2022-07-30T06:02:03;20.19;56.62
216;HTU21D;45701;48.81287245;9.14186865;2022-07-30T06:04:47;20.25;56.64
216;HTU21D;45701;48.81287245;9.14186865;2022-07-30T06:07:14;20.31;56.45
216;HTU21D;45701;48.81287245;9.14186865;2022-07-30T06:09:41;20.37;56.03
216;HTU21D;45701;48.81287245;9.14186865;2022-07-30T06:12:09;20.40;56.25
216;HTU21D;45701;48.81287245;9.14186865;2022-07-30T06:14:37;20.53;55.71
216;HTU21D;45701;48.81287245;9.14186865;2022-07-30T06:17:05;20.64;54.49
216;HTU21D;45701;48.81287245;9.14186865;2022-07-30T06:19:58;20.70;54.07
216;HTU21D;45701;48.81287245;9.14186865;2022-07-30T06:22:25;20.85;54.95
216;HTU21D;45701;48.81287245;9.14186865;2022-07-30T06:24:54;20.85;53.27
216;HTU21D;45701;48.81287245;9.14186865;2022-07-30T06:27:24;20.98;52.85
216;HTU21D;45701;48.81287245;9.14186865;2022-07-30T06:29:53;21.11;53.03
216;HTU21D;45701;48.81287245;9.14186865;2022-07-30T06:32:20;21.21;52.11
216;HTU21D;45701;48.81287245;9.14186865;2022-07-30T06:34:47;21.13;51.83
216;HTU21D;45701;48.81287245;9.14186865;2022-07-30T06:37:13;21.16;51.75
216;HTU21D;45701;48.81287245;9.14186865;2022-07-30T06:39:43;21.19;52.19
216;HTU21D;45701;48.81287245;9.14186865;2022-07-30T06:42:16;21.25;51.48
216;HTU21D;45701;48.81287245;9.14186865;2022-07-30T06:45:05;21.30;50.81
216;HTU21D;45701;48.81287245;9.14186865;2022-07-30T06:47:55;21.32;51.22
216;HTU21D;45701;48.81287245;9.14186865;2022-07-30T06:50:23;21.39;50.53
216;HTU21D;45701;48.81287245;9.14186865;2022-07-30T06:52:49;21.35;51.10
216;HTU21D;45701;48.81287245;9.14186865;2022-07-30T06:55:17;21.47;50.66
216;HTU21D;45701;48.81287245;9.14186865;2022-07-30T06:57:50;21.54;50.92
216;HTU21D;45701;48.81287245;9.14186865;2022-07-30T07:00:38;21.60;50.23
216;HTU21D;45701;48.81287245;9.14186865;2022-07-30T07:03:10;21.59;50.52
216;HTU21D;45701;48.81287245;9.14186865;2022-07-30T07:05:36;21.62;50.45
216;HTU21D;45701;48.81287245;9.14186865;2022-07-30T07:08:03;21.65;50.21
216;HTU21D;45701;48.81287245;9.14186865;2022-07-30T07:10:36;21.73;50.66
216;HTU21D;45701;48.81287245;9.14186865;2022-07-30T07:13:13;21.75;50.10
216;HTU21D;45701;48.81287245;9.14186865;2022-07-30T07:15:41;21.87;49.61
216;HTU21D;45701;48.81287245;9.14186865;2022-07-30T07:18:13;21.80;50.22
216;HTU21D;45701;48.81287245;9.14186865;2022-07-30T07:20:46;21.94;49.18
216;HTU21D;45701;48.81287245;9.14186865;2022-07-30T07:23:13;21.97;49.30
216;HTU21D;45701;48.81287245;9.14186865;2022-07-30T07:25:40;21.98;49.24
216;HTU21D;45701;48.81287245;9.14186865;2022-07-30T07:28:08;22.01;49.66
216;HTU21D;45701;48.81287245;9.14186865;2022-07-30T07:30:35;22.07;48.82
216;HTU21D;45701;48.81287245;9.14186865;2022-07-30T07:33:06;22.11;48.73
216;HTU21D;45701;48.81287245;9.14186865;2022-07-30T07:35:33;22.06;48.56
216;HTU21D;45701;48.81287245;9.14186865;2022-07-30T07:37:59;22.11;48.38
216;HTU21D;45701;48.81287245;9.14186865;2022-07-30T07:40:26;22.14;49.05
216;HTU21D;45701;48.81287245;9.14186865;2022-07-30T07:42:55;22.20;48.76
216;HTU21D;45701;48.81287245;9.14186865;2022-07-30T07:45:22;22.35;48.05
216;HTU21D;45701;48.81287245;9.14186865;2022-07-30T07:47:59;22.41;47.55
216;HTU21D;45701;48.81287245;9.14186865;2022-07-30T07:50:49;22.33;47.25
216;HTU21D;45701;48.81287245;9.14186865;2022-07-30T07:53:22;22.41;47.58
216;HTU21D;45701;48.81287245;9.14186865;2022-07-30T07:55:48;22.44;46.94
216;HTU21D;45701;48.81287245;9.14186865;2022-07-30T07:58:15;22.57;47.24
216;HTU21D;45701;48.81287245;9.14186865;2022-07-30T08:00:42;22.61;45.12
216;HTU21D;45701;48.81287245;9.14186865;2022-07-30T08:03:09;22.44;45.48
216;HTU21D;45701;48.81287245;9.14186865;2022-07-30T08:05:36;22.57;45.79
216;HTU21D;45701;48.81287245;9.14186865;2022-07-30T08:08:17;22.61;44.26
216;HTU21D;45701;48.81287245;9.14186865;2022-07-30T08:11:19;22.65;44.70
216;HTU21D;45701;48.81287245;9.14186865;2022-07-30T08:14:05;22.70;45.62
216;HTU21D;45701;48.81287245;9.14186865;2022-07-30T08:16:50;22.78;44.85
216;HTU21D;45701;48.81287245;9.14186865;2022-07-30T08:19:45;22.88;43.33
216;HTU21D;45701;48.81287245;9.14186865;2022-07-30T08:22:17;22.88;43.14
216;HTU21D;45701;48.81287245;9.14186865;2022-07-30T08:24:45;23.00;43.70
216;HTU21D;45701;48.81287245;9.14186865;2022-07-30T08:27:11;22.99;43.16
216;HTU21D;45701;48.81287245;9.14186865;2022-07-30T08:29:38;22.98;43.19
216;HTU21D;45701;48.81287245;9.14186865;2022-07-30T08:32:05;22.97;42.63
216;HTU21D;45701;48.81287245;9.14186865;2022-07-30T08:34:35;22.95;43.47
216;HTU21D;45701;48.81287245;9.14186865;2022-07-30T08:37:02;23.07;43.28
216;HTU21D;45701;48.81287245;9.14186865;2022-07-30T08:39:29;23.09;41.60
216;HTU21D;45701;48.81287245;9.14186865;2022-07-30T08:41:57;23.27;41.82
216;HTU21D;45701;48.81287245;9.14186865;2022-07-30T08:44:25;23.31;41.08
216;HTU21D;45701;48.81287245;9.14186865;2022-07-30T08:46:52;23.36;41.98
216;HTU21D;45701;48.81287245;9.14186865;2022-07-30T08:49:44;23.45;38.88
216;HTU21D;45701;48.81287245;9.14186865;2022-07-30T08:52:11;23.39;40.10
216;HTU21D;45701;48.81287245;9.14186865;2022-07-30T08:54:42;23.58;39.20
216;HTU21D;45701;48.81287245;9.14186865;2022-07-30T08:57:12;23.59;39.52
216;HTU21D;45701;48.81287245;9.14186865;2022-07-30T08:59:39;23.55;39.49
216;HTU21D;45701;48.81287245;9.14186865;2022-07-30T09:02:06;23.59;38.97
216;HTU21D;45701;48.81287245;9.14186865;2022-07-30T09:04:39;23.49;39.60
216;HTU21D;45701;48.81287245;9.14186865;2022-07-30T09:07:06;23.61;39.83
216;HTU21D;45701;48.81287245;9.14186865;2022-07-30T09:09:34;23.61;39.54
216;HTU21D;45701;48.81287245;9.14186865;2022-07-30T09:12:00;23.76;40.32
216;HTU21D;45701;48.81287245;9.14186865;2022-07-30T09:14:29;24.04;39.85
216;HTU21D;45701;48.81287245;9.14186865;2022-07-30T09:16:56;23.96;39.46
216;HTU21D;45701;48.81287245;9.14186865;2022-07-30T09:19:23;23.97;39.17
216;HTU21D;45701;48.81287245;9.14186865;2022-07-30T09:21:55;23.91;39.53
216;HTU21D;45701;48.81287245;9.14186865;2022-07-30T09:24:40;23.89;39.19
216;HTU21D;45701;48.81287245;9.14186865;2022-07-30T09:27:42;24.04;38.96
216;HTU21D;45701;48.81287245;9.14186865;2022-07-30T09:30:42;24.15;38.95
216;HTU21D;45701;48.81287245;9.14186865;2022-07-30T09:33:33;23.92;39.78
216;HTU21D;45701;48.81287245;9.14186865;2022-07-30T09:36:30;23.94;38.26
216;HTU21D;45701;48.81287245;9.14186865;2022-07-30T09:39:30;24.15;37.95
216;HTU21D;45701;48.81287245;9.14186865;2022-07-30T09:42:17;24.09;37.95
216;HTU21D;45701;48.81287245;9.14186865;2022-07-30T09:44:46;24.23;37.68
216;HTU21D;45701;48.81287245;9.14186865;2022-07-30T09:47:32;24.24;36.67
216;HTU21D;45701;48.81287245;9.14186865;2022-07-30T09:50:04;24.20;37.08
216;HTU21D;45701;48.81287245;9.14186865;2022-07-30T09:52:31;24.28;36.30
216;HTU21D;45701;48.81287245;9.14186865;2022-07-30T09:54:58;24.28;36.80
216;HTU21D;45701;48.81287245;9.14186865;2022-07-30T09:57:27;24.46;36.82
216;HTU21D;45701;48.81287245;9.14186865;2022-07-30T10:00:18;24.62;35.85
216;HTU21D;45701;48.81287245;9.14186865;2022-07-30T10:02:51;24.88;35.95
216;HTU21D;45701;48.81287245;9.14186865;2022-07-30T10:05:51;24.88;36.10
216;HTU21D;45701;48.81287245;9.14186865;2022-07-30T10:08:18;24.39;35.57
216;HTU21D;45701;48.81287245;9.14186865;2022-07-30T10:10:46;24.35;35.93
216;HTU21D;45701;48.81287245;9.14186865;2022-07-30T10:13:15;24.41;35.74
216;HTU21D;45701;48.81287245;9.14186865;2022-07-30T10:15:42;24.53;37.21
216;HTU21D;45701;48.81287245;9.14186865;2022-07-30T10:18:11;24.63;35.75
216;HTU21D;45701;48.81287245;9.14186865;2022-07-30T10:20:57;24.75;36.26
216;HTU21D;45701;48.81287245;9.14186865;2022-07-30T10:23:50;24.85;34.92
216;HTU21D;45701;48.81287245;9.14186865;2022-07-30T10:26:40;24.99;34.98
216;HTU21D;45701;48.81287245;9.14186865;2022-07-30T10:29:31;24.97;35.05
216;HTU21D;45701;48.81287245;9.14186865;2022-07-30T10:31:59;25.00;35.53
216;HTU21D;45701;48.81287245;9.14186865;2022-07-30T10:34:27;25.05;34.41
216;HTU21D;45701;48.81287245;9.14186865;2022-07-30T10:36:57;24.99;35.05
216;HTU21D;45701;48.81287245;9.14186865;2022-07-30T10:39:29;25.01;34.21
216;HTU21D;45701;48.81287245;9.14186865;2022-07-30T10:42:06;24.95;34.05
216;HTU21D;45701;48.81287245;9.14186865;2022-07-30T10:44:59;24.89;35.18
216;HTU21D;45701;48.81287245;9.14186865;2022-07-30T10:47:29;24.92;35.22
216;HTU21D;45701;48.81287245;9.14186865;2022-07-30T10:50:07;24.99;35.34
216;HTU21D;45701;48.81287245;9.14186865;2022-07-30T10:52:45;25.20;34.09
216;HTU21D;45701;48.81287245;9.14186865;2022-07-30T10:55:16;25.04;34.39
216;HTU21D;45701;48.81287245;9.14186865;2022-07-30T10:58:04;25.06;34.48
216;HTU21D;45701;48.81287245;9.14186865;2022-07-30T11:00:32;25.23;34.38
216;HTU21D;45701;48.81287245;9.14186865;2022-07-30T11:03:15;25.16;35.17
216;HTU21D;45701;48.81287245;9.14186865;2022-07-30T11:05:44;24.86;36.01
216;HTU21D;45701;48.81287245;9.14186865;2022-07-30T11:08:28;24.89;35.98
216;HTU21D;45701;48.81287245;9.14186865;2022-07-30T11:10:55;24.82;36.29
216;HTU21D;45701;48.81287245;9.14186865;2022-07-30T11:13:53;24.68;35.76
216;HTU21D;45701;48.81287245;9.14186865;2022-07-30T11:16:21;25.01;34.42
216;HTU21D;45701;48.81287245;9.14186865;2022-07-30T11:19:07;25.38;33.56
216;HTU21D;45701;48.81287245;9.14186865;2022-07-30T11:21:37;25.37;32.74
216;HTU21D;45701;48.81287245;9.14186865;2022-07-30T11:24:04;25.34;32.84
216;HTU21D;45701;48.81287245;9.14186865;2022-07-30T11:26:49;25.72;32.23
216;HTU21D;45701;48.81287245;9.14186865;2022-07-30T11:29:35;25.81;32.04
216;HTU21D;45701;48.81287245;9.14186865;2022-07-30T11:32:22;26.06;30.90
216;HTU21D;45701;48.81287245;9.14186865;2022-07-30T11:34:49;25.92;31.57
216;HTU21D;45701;48.81287245;9.14186865;2022-07-30T11:37:18;26.32;31.33
216;HTU21D;45701;48.81287245;9.14186865;2022-07-30T11:40:10;26.25;29.91
216;HTU21D;45701;48.81287245;9.14186865;2022-07-30T11:42:39;26.30;30.42
216;HTU21D;45701;48.81287245;9.14186865;2022-07-30T11:45:20;26.71;29.57
216;HTU21D;45701;48.81287245;9.14186865;2022-07-30T11:47:52;26.82;29.48
216;HTU21D;45701;48.81287245;9.14186865;2022-07-30T11:50:21;26.98;29.41
216;HTU21D;45701;48.81287245;9.14186865;2022-07-30T11:52:50;26.98;28.97
216;HTU21D;45701;48.81287245;9.14186865;2022-07-30T11:55:24;27.38;29.34
216;HTU21D;45701;48.81287245;9.14186865;2022-07-30T11:57:52;27.97;28.52
216;HTU21D;45701;48.81287245;9.14186865;2022-07-30T12:00:21;28.33;27.23
216;HTU21D;45701;48.81287245;9.14186865;2022-07-30T12:02:48;28.31;27.19
216;HTU21D;45701;48.81287245;9.14186865;2022-07-30T12:05:21;27.57;27.76
216;HTU21D;45701;48.81287245;9.14186865;2022-07-30T12:07:49;27.96;27.14
216;HTU21D;45701;48.81287245;9.14186865;2022-07-30T12:10:17;28.01;26.29
216;HTU21D;45701;48.81287245;9.14186865;2022-07-30T12:12:45;27.59;27.00
216;HTU21D;45701;48.81287245;9.14186865;2022-07-30T12:15:27;27.96;26.84
216;HTU21D;45701;48.81287245;9.14186865;2022-07-30T12:17:54;28.42;25.84
216;HTU21D;45701;48.81287245;9.14186865;2022-07-30T12:20:21;28.78;25.47
216;HTU21D;45701;48.81287245;9.14186865;2022-07-30T12:22:47;28.88;25.43
216;HTU21D;45701;48.81287245;9.14186865;2022-07-30T12:25:16;28.50;26.33
216;HTU21D;45701;48.81287245;9.14186865;2022-07-30T12:27:44;28.91;25.67
216;HTU21D;45701;48.81287245;9.14186865;2022-07-30T12:30:12;28.78;25.53
216;HTU21D;45701;48.81287245;9.14186865;2022-07-30T12:32:40;29.95;25.91
216;HTU21D;45701;48.81287245;9.14186865;2022-07-30T12:35:07;29.92;24.33
216;HTU21D;45701;48.81287245;9.14186865;2022-07-30T12:37:34;30.15;23.99
216;HTU21D;45701;48.81287245;9.14186865;2022-07-30T12:40:06;29.91;22.77
216;HTU21D;45701;48.81287245;9.14186865;2022-07-30T12:42:34;28.98;23.96
216;HTU21D;45701;48.81287245;9.14186865;2022-07-30T12:45:01;29.60;23.69
216;HTU21D;45701;48.81287245;9.14186865;2022-07-30T12:47:29;29.59;24.08
216;HTU21D;45701;48.81287245;9.14186865;2022-07-30T12:50:00;29.70;22.93
216;HTU21D;45701;48.81287245;9.14186865;2022-07-30T12:52:30;29.56;24.59
216;HTU21D;45701;48.81287245;9.14186865;2022-07-30T12:54:58;29.45;25.39
216;HTU21D;45701;48.81287245;9.14186865;2022-07-30T12:57:26;29.59;23.91
216;HTU21D;45701;48.81287245;9.14186865;2022-07-30T13:00:05;29.95;23.79
216;HTU21D;45701;48.81287245;9.14186865;2022-07-30T13:02:33;28.69;25.79
216;HTU21D;45701;48.81287245;9.14186865;2022-07-30T13:04:59;28.06;27.23
216;HTU21D;45701;48.81287245;9.14186865;2022-07-30T13:07:26;28.08;27.16
216;HTU21D;45701;48.81287245;9.14186865;2022-07-30T13:10:07;28.80;25.81
216;HTU21D;45701;48.81287245;9.14186865;2022-07-30T13:12:34;28.59;26.03
216;HTU21D;45701;48.81287245;9.14186865;2022-07-30T13:15:01;28.60;25.96
216;HTU21D;45701;48.81287245;9.14186865;2022-07-30T13:17:29;28.89;25.68
216;HTU21D;45701;48.81287245;9.14186865;2022-07-30T13:19:55;29.58;24.43
216;HTU21D;45701;48.81287245;9.14186865;2022-07-30T13:22:22;30.86;23.45
216;HTU21D;45701;48.81287245;9.14186865;2022-07-30T13:24:49;31.41;21.85
216;HTU21D;45701;48.81287245;9.14186865;2022-07-30T13:27:15;30.72;22.25
216;HTU21D;45701;48.81287245;9.14186865;2022-07-30T13:29:42;29.20;24.61
216;HTU21D;45701;48.81287245;9.14186865;2022-07-30T13:32:09;29.03;24.89
216;HTU21D;45701;48.81287245;9.14186865;2022-07-30T13:34:37;28.57;26.13
216;HTU21D;45701;48.81287245;9.14186865;2022-07-30T13:37:04;28.33;26.59
216;HTU21D;45701;48.81287245;9.14186865;2022-07-30T13:39:31;28.40;26.68
216;HTU21D;45701;48.81287245;9.14186865;2022-07-30T13:41:57;28.24;27.00
216;HTU21D;45701;48.81287245;9.14186865;2022-07-30T13:44:24;28.33;27.81
216;HTU21D;45701;48.81287245;9.14186865;2022-07-30T13:46:51;28.17;27.04
216;HTU21D;45701;48.81287245;9.14186865;2022-07-30T13:49:18;28.02;27.68
216;HTU21D;45701;48.81287245;9.14186865;2022-07-30T13:51:46;27.91;28.15
216;HTU21D;45701;48.81287245;9.14186865;2022-07-30T13:54:12;28.25;28.32
216;HTU21D;45701;48.81287245;9.14186865;2022-07-30T13:56:39;27.90;28.18
216;HTU21D;45701;48.81287245;9.14186865;2022-07-30T13:59:06;27.89;28.07